Time;durP1;ratioP1;P1;durP2;ratioP2;P2;SDS_P1;SDS_P2;PMS_P1;PMS_P2;Temp;Humidity;BMP_temperature;BMP_pressure;BME280_temperature;BME280_humidity;BME280_pressure;Samples;Min_cycle;Max_cycle;Signal;HPM_P1;HPM_P2
2024/04/14 00:01:39;;;;;;;5.47;2.70;;;;;;;12.07;100.00;97808.34;5342784;26;20009;-59
2024/04/14 00:04:06;;;;;;;5.07;2.83;;;;;;;11.93;100.00;97803.25;5348307;26;20020;-59
2024/04/14 00:06:33;;;;;;;5.53;2.30;;;;;;;11.86;100.00;97807.22;5351051;26;20048;-59
2024/04/14 00:09:01;;;;;;;6.30;3.15;;;;;;;11.83;100.00;97801.22;5343573;26;20016;-59
2024/04/14 00:11:28;;;;;;;4.45;2.28;;;;;;;11.78;100.00;97803.03;5346432;26;20011;-58
2024/04/14 00:13:57;;;;;;;3.65;1.92;;;;;;;11.78;100.00;97797.59;5345756;26;20018;-59
2024/04/14 00:16:23;;;;;;;5.28;2.35;;;;;;;11.78;100.00;97801.16;5349747;26;20000;-58
2024/04/14 00:18:50;;;;;;;5.00;2.30;;;;;;;11.73;100.00;97789.38;5344015;26;20020;-59
2024/04/14 00:21:21;;;;;;;4.78;2.10;;;;;;;11.62;100.00;97786.53;5342521;26;20016;-59
2024/04/14 00:23:48;;;;;;;5.90;2.38;;;;;;;11.70;100.00;97786.13;5330103;26;20012;-58
2024/04/14 00:26:15;;;;;;;5.75;2.35;;;;;;;11.76;100.00;97783.47;5347417;26;20536;-59
2024/04/14 00:28:44;;;;;;;5.95;2.50;;;;;;;11.61;100.00;97787.59;5342378;26;20013;-59
2024/04/14 00:31:10;;;;;;;5.03;2.50;;;;;;;11.48;100.00;97786.06;5344319;26;20001;-59
2024/04/14 00:33:38;;;;;;;4.28;2.35;;;;;;;11.48;100.00;97779.81;5347737;26;20008;-58
2024/04/14 00:36:05;;;;;;;6.20;2.70;;;;;;;11.48;100.00;97783.34;5328487;26;20839;-59
2024/04/14 00:38:32;;;;;;;6.88;2.53;;;;;;;11.41;100.00;97774.53;5347259;26;20594;-58
2024/04/14 00:40:58;;;;;;;5.10;2.42;;;;;;;11.41;100.00;97782.69;5345407;26;20075;-58
2024/04/14 00:43:25;;;;;;;4.10;2.35;;;;;;;11.32;100.00;97768.75;5327991;26;20071;-58
2024/04/14 00:45:52;;;;;;;4.88;2.25;;;;;;;11.39;100.00;97768.56;5336622;26;20011;-59
2024/04/14 00:48:21;;;;;;;5.55;2.40;;;;;;;11.35;100.00;97773.63;5340466;26;20009;-58
2024/04/14 00:50:49;;;;;;;3.47;2.00;;;;;;;11.39;100.00;97774.00;5339529;26;20004;-59
2024/04/14 00:53:16;;;;;;;3.72;2.03;;;;;;;11.34;100.00;97772.00;5351966;26;20330;-59
2024/04/14 00:55:43;;;;;;;4.88;2.40;;;;;;;11.43;100.00;97773.22;5340625;26;20477;-59
2024/04/14 00:58:10;;;;;;;5.93;2.10;;;;;;;11.35;100.00;97767.41;5347902;26;20016;-58
2024/04/14 01:00:37;;;;;;;6.68;2.97;;;;;;;11.28;100.00;97762.16;5351818;26;19925;-58
2024/04/14 01:03:04;;;;;;;5.15;2.00;;;;;;;11.25;100.00;97759.94;5349873;26;20020;-58
2024/04/14 01:05:31;;;;;;;4.78;2.05;;;;;;;11.27;100.00;97760.50;5356185;26;20004;-59
2024/04/14 01:07:58;;;;;;;6.10;2.20;;;;;;;11.14;100.00;97756.25;5348445;26;20532;-59
2024/04/14 01:10:25;;;;;;;5.13;2.10;;;;;;;10.96;100.00;97768.97;5338604;26;20000;-59
2024/04/14 01:12:52;;;;;;;4.85;2.17;;;;;;;10.85;100.00;97762.53;5342836;26;20009;-58
2024/04/14 01:15:19;;;;;;;3.90;2.10;;;;;;;10.86;100.00;97766.06;5336627;26;20012;-58
2024/04/14 01:17:46;;;;;;;6.18;2.42;;;;;;;10.80;100.00;97765.16;5335430;26;20015;-58
2024/04/14 01:20:13;;;;;;;5.93;2.53;;;;;;;10.82;100.00;97757.59;5352351;26;20015;-59
2024/04/14 01:22:39;;;;;;;5.40;2.30;;;;;;;10.78;100.00;97759.16;5320502;26;20079;-58
2024/04/14 01:25:07;;;;;;;4.20;2.03;;;;;;;10.70;100.00;97757.69;5342487;26;20001;-59
2024/04/14 01:27:34;;;;;;;4.40;2.05;;;;;;;10.55;100.00;97763.63;5349404;26;20059;-58
2024/04/14 01:30:05;;;;;;;6.88;2.70;;;;;;;10.51;100.00;97754.34;5346320;26;20017;-58
2024/04/14 01:32:39;;;;;;;5.67;2.37;;;;;;;10.44;100.00;97767.16;5334569;26;20081;-58
2024/04/14 01:35:08;;;;;;;6.57;3.25;;;;;;;10.41;100.00;97758.47;5342063;26;20020;-58
2024/04/14 01:37:35;;;;;;;6.68;3.05;;;;;;;10.34;100.00;97762.38;5340626;26;20026;-58
2024/04/14 01:40:02;;;;;;;6.03;3.10;;;;;;;10.22;100.00;97757.84;5336452;26;20078;-59
2024/04/14 01:42:30;;;;;;;6.15;3.17;;;;;;;10.25;100.00;97762.75;5350200;26;20000;-59
2024/04/14 01:44:56;;;;;;;5.53;2.70;;;;;;;10.27;100.00;97763.34;5337757;26;20018;-58
2024/04/14 01:47:23;;;;;;;5.05;2.58;;;;;;;10.25;100.00;97768.16;5352956;26;20070;-58
2024/04/14 01:49:50;;;;;;;6.75;3.08;;;;;;;10.22;100.00;97770.53;5346723;26;20009;-59
2024/04/14 01:52:17;;;;;;;4.80;2.50;;;;;;;10.15;100.00;97757.16;5338161;26;20017;-59
2024/04/14 01:54:44;;;;;;;5.10;2.63;;;;;;;10.21;100.00;97761.59;5346044;26;19997;-58
2024/04/14 01:57:11;;;;;;;4.43;2.45;;;;;;;10.19;100.00;97754.78;5339292;26;20084;-57
2024/04/14 01:59:38;;;;;;;5.30;2.50;;;;;;;10.08;100.00;97749.16;5347436;26;20053;-58
2024/04/14 02:02:04;;;;;;;4.03;2.20;;;;;;;10.00;100.00;97750.34;5338117;26;20417;-58
2024/04/14 02:04:32;;;;;;;4.80;2.28;;;;;;;9.92;100.00;97747.19;5343163;26;20065;-57
2024/04/14 02:06:59;;;;;;;5.22;2.92;;;;;;;9.90;100.00;97755.56;5341080;26;20033;-57
2024/04/14 02:09:26;;;;;;;5.13;2.80;;;;;;;9.92;100.00;97756.16;5334341;26;20000;-58
2024/04/14 02:11:53;;;;;;;6.05;3.05;;;;;;;9.89;100.00;97757.44;5327863;26;20016;-58
2024/04/14 02:14:19;;;;;;;6.68;2.80;;;;;;;9.89;100.00;97757.44;5344277;26;20045;-58
2024/04/14 02:16:46;;;;;;;4.85;3.00;;;;;;;9.90;100.00;97752.84;5339026;26;20016;-58
2024/04/14 02:19:13;;;;;;;5.57;2.67;;;;;;;9.90;100.00;97752.84;5344106;26;20009;-58
2024/04/14 02:21:42;;;;;;;3.83;2.17;;;;;;;9.88;100.00;97750.38;5340934;26;20018;-57
2024/04/14 02:24:09;;;;;;;8.20;2.22;;;;;;;9.84;100.00;97745.69;5340973;26;20012;-58
2024/04/14 02:26:36;;;;;;;6.28;2.25;;;;;;;9.85;100.00;97745.44;5338494;26;20009;-58
2024/04/14 02:29:03;;;;;;;6.25;2.25;;;;;;;9.82;100.00;97748.63;5336155;26;20002;-58
2024/04/14 02:31:29;;;;;;;8.48;2.63;;;;;;;9.83;100.00;97749.44;5348106;26;20016;-58
2024/04/14 02:33:56;;;;;;;3.65;2.22;;;;;;;9.84;100.00;97737.59;5343496;26;20040;-59
2024/04/14 02:36:26;;;;;;;6.80;2.80;;;;;;;9.82;100.00;97742.41;5344231;26;20016;-57
2024/04/14 02:38:53;;;;;;;7.38;3.03;;;;;;;9.74;100.00;97739.00;5332155;26;20095;-59
2024/04/14 02:41:20;;;;;;;5.40;3.55;;;;;;;9.72;100.00;97738.41;5343261;26;20763;-58
2024/04/14 02:43:48;;;;;;;5.18;3.03;;;;;;;9.73;100.00;97742.75;5336687;26;20008;-58
2024/04/14 02:46:14;;;;;;;4.78;2.90;;;;;;;9.71;100.00;97742.19;5349315;26;20004;-58
2024/04/14 02:48:47;;;;;;;6.47;3.00;;;;;;;9.75;100.00;97747.94;5325715;26;20080;-58
2024/04/14 02:51:14;;;;;;;5.90;3.00;;;;;;;9.70;100.00;97740.53;5340867;26;20072;-59
2024/04/14 02:53:40;;;;;;;4.70;2.33;;;;;;;9.63;100.00;97737.94;5345539;26;20087;-57
2024/04/14 02:56:07;;;;;;;6.07;2.78;;;;;;;9.47;100.00;97744.09;5338634;26;20006;-58
2024/04/14 02:58:34;;;;;;;6.82;2.65;;;;;;;9.42;100.00;97736.69;5350829;26;20000;-58
2024/04/14 03:01:01;;;;;;;5.07;2.80;;;;;;;9.37;100.00;97733.88;5342216;26;20012;-58
2024/04/14 03:03:28;;;;;;;6.28;3.10;;;;;;;9.41;100.00;97736.91;5336761;26;20000;-58
2024/04/14 03:06:05;;;;;;;5.18;2.50;;;;;;;9.50;100.00;97733.63;5337761;26;20049;-58
2024/04/14 03:08:32;;;;;;;5.22;2.55;;;;;;;9.56;100.00;97739.97;5342083;26;20011;-58
2024/04/14 03:10:58;;;;;;;4.72;2.80;;;;;;;9.50;100.00;97746.31;5338806;26;20009;-59
2024/04/14 03:13:25;;;;;;;5.65;3.05;;;;;;;9.58;100.00;97742.44;5343112;26;20061;-59
2024/04/14 03:15:53;;;;;;;5.55;2.65;;;;;;;9.29;100.00;97735.00;5331341;26;20485;-59
2024/04/14 03:18:20;;;;;;;5.30;2.70;;;;;;;9.05;100.00;97740.41;5337126;26;20620;-58
2024/04/14 03:21:03;;;;;;;5.57;3.38;;;;;;;8.95;100.00;97741.00;5335863;26;20001;-58
2024/04/14 03:23:30;;;;;;;4.60;2.90;;;;;;;8.91;100.00;97744.38;5325336;26;20050;-58
2024/04/14 03:25:57;;;;;;;5.05;2.60;;;;;;;8.96;100.00;97737.22;5325497;26;20108;-58
2024/04/14 03:28:25;;;;;;;7.05;3.25;;;;;;;9.07;100.00;97740.19;5346820;26;20010;-59
2024/04/14 03:30:57;;;;;;;5.55;2.83;;;;;;;9.04;100.00;97740.66;5335076;26;20593;-58
2024/04/14 03:33:24;;;;;;;5.70;2.67;;;;;;;8.85;100.00;97735.34;5349032;26;20048;-57
2024/04/14 03:36:17;;;;;;;4.95;2.88;;;;;;;8.97;100.00;97733.50;5344925;26;20001;-58
2024/04/14 03:38:44;;;;;;;4.45;2.63;;;;;;;8.99;100.00;97733.22;5332003;26;20813;-58
2024/04/14 03:41:11;;;;;;;5.28;3.00;;;;;;;9.08;100.00;97739.97;5331646;26;20016;-58
2024/04/14 03:43:37;;;;;;;6.70;2.67;;;;;;;9.31;100.00;97732.09;5327394;26;20005;-58
2024/04/14 03:46:04;;;;;;;4.38;2.30;;;;;;;9.29;100.00;97740.41;5336080;26;20020;-58
2024/04/14 03:48:33;;;;;;;4.10;2.50;;;;;;;9.30;100.00;97731.28;5336436;26;20051;-59
2024/04/14 03:51:00;;;;;;;4.15;2.33;;;;;;;9.36;100.00;97743.00;5338631;26;20082;-58
2024/04/14 03:53:26;;;;;;;6.45;2.83;;;;;;;9.41;100.00;97745.84;5336213;26;20018;-58
2024/04/14 03:55:53;;;;;;;3.75;2.63;;;;;;;9.38;100.00;97743.59;5328643;26;20013;-58
2024/04/14 03:58:19;;;;;;;5.13;2.50;;;;;;;9.47;100.00;97741.38;5340230;26;20013;-58
2024/04/14 04:00:46;;;;;;;5.13;2.10;;;;;;;9.50;100.00;97743.59;5336424;26;20049;-58
2024/04/14 04:03:13;;;;;;;5.15;2.22;;;;;;;9.57;100.00;97746.19;5339420;26;20469;-59
2024/04/14 04:05:40;;;;;;;4.20;2.28;;;;;;;9.52;100.00;97749.59;5342000;26;20019;-59
2024/04/14 04:08:06;;;;;;;5.05;2.50;;;;;;;9.50;100.00;97752.53;5345653;26;20015;-59
2024/04/14 04:10:34;;;;;;;5.20;2.40;;;;;;;9.51;100.00;97756.06;5339158;26;20013;-59
2024/04/14 04:13:00;;;;;;;4.20;2.33;;;;;;;9.40;100.00;97749.59;5340172;26;20012;-59
2024/04/14 04:15:27;;;;;;;5.38;2.20;;;;;;;9.17;100.00;97748.53;5342118;26;20487;-59
2024/04/14 04:17:54;;;;;;;5.15;2.40;;;;;;;9.04;100.00;97746.88;5339967;26;20087;-59
2024/04/14 04:20:21;;;;;;;5.07;2.80;;;;;;;9.13;100.00;97752.75;5348382;26;20626;-59
2024/04/14 04:22:47;;;;;;;3.90;2.70;;;;;;;9.22;100.00;97742.44;5341267;26;20008;-58
2024/04/14 04:25:14;;;;;;;6.28;2.47;;;;;;;9.30;100.00;97744.78;5325358;26;20016;-59
2024/04/14 04:27:40;;;;;;;4.97;2.60;;;;;;;9.33;100.00;97746.19;5346142;26;20015;-59
2024/04/14 04:30:08;;;;;;;4.40;2.42;;;;;;;9.29;100.00;97753.13;5347473;26;20029;-58
2024/04/14 04:32:34;;;;;;;4.85;2.38;;;;;;;9.30;100.00;97741.25;5348353;26;20077;-59
2024/04/14 04:35:05;;;;;;;4.18;2.17;;;;;;;9.26;100.00;97748.19;5337370;26;20061;-59
2024/04/14 04:37:32;;;;;;;4.60;2.50;;;;;;;9.19;100.00;97751.00;5331055;26;20011;-59
2024/04/14 04:39:58;;;;;;;5.45;2.45;;;;;;;9.15;100.00;97749.81;5350325;26;20016;-59
2024/04/14 04:42:25;;;;;;;5.15;2.40;;;;;;;9.14;100.00;97743.59;5348129;26;20074;-59
2024/04/14 04:44:52;;;;;;;5.00;3.00;;;;;;;9.12;100.00;97748.41;5336034;26;20033;-59
2024/04/14 04:47:18;;;;;;;4.63;2.75;;;;;;;8.96;100.00;97745.31;5336580;26;20028;-59
2024/04/14 04:49:45;;;;;;;6.75;3.10;;;;;;;8.97;100.00;97741.59;5339441;26;20016;-59
2024/04/14 04:52:12;;;;;;;5.15;2.63;;;;;;;8.95;100.00;97742.84;5333458;26;20011;-59
2024/04/14 04:54:39;;;;;;;5.28;2.88;;;;;;;9.03;100.00;97750.63;5339304;26;20040;-60
2024/04/14 04:57:05;;;;;;;5.22;2.90;;;;;;;8.97;100.00;97749.69;5330839;26;20013;-59
2024/04/14 04:59:32;;;;;;;5.13;2.90;;;;;;;9.09;100.00;97751.56;5333268;26;20012;-59
2024/04/14 05:01:59;;;;;;;4.60;2.47;;;;;;;9.18;100.00;97750.16;5339770;26;20060;-58
2024/04/14 05:04:25;;;;;;;5.15;2.90;;;;;;;9.24;100.00;97754.66;5339589;26;20025;-59
2024/04/14 05:06:53;;;;;;;7.68;3.20;;;;;;;9.21;100.00;97749.72;5328478;26;20013;-58
2024/04/14 05:09:20;;;;;;;5.57;2.97;;;;;;;9.20;100.00;97753.47;5335903;26;20005;-59
2024/04/14 05:11:47;;;;;;;4.90;3.30;;;;;;;9.19;100.00;97751.00;5345173;26;20028;-59
2024/04/14 05:14:13;;;;;;;5.30;2.97;;;;;;;9.24;100.00;97759.22;5333632;26;19996;-61
2024/04/14 05:16:40;;;;;;;6.13;3.38;;;;;;;9.31;100.00;97753.69;5329217;26;20130;-60
2024/04/14 05:19:06;;;;;;;6.60;2.72;;;;;;;9.41;100.00;97763.94;5334683;26;20008;-57
2024/04/14 05:21:33;;;;;;;5.15;2.60;;;;;;;9.52;100.00;97765.81;5344842;26;20622;-59
2024/04/14 05:24:00;;;;;;;6.10;2.78;;;;;;;9.66;100.00;97766.38;5337916;26;20085;-61
2024/04/14 05:26:26;;;;;;;4.88;2.60;;;;;;;9.79;100.00;97770.75;5336625;26;20005;-59
2024/04/14 05:28:53;;;;;;;6.47;3.38;;;;;;;9.95;100.00;97771.06;5325282;26;20017;-60
2024/04/14 05:31:19;;;;;;;4.63;2.45;;;;;;;10.07;100.00;97776.47;5319682;26;20079;-60
2024/04/14 05:33:50;;;;;;;4.53;2.67;;;;;;;10.18;100.00;97778.31;5335923;26;20756;-58
2024/04/14 05:36:19;;;;;;;4.75;2.67;;;;;;;10.28;100.00;97783.94;5338595;26;20045;-58
2024/04/14 05:38:47;;;;;;;4.88;2.70;;;;;;;10.41;100.00;97779.31;5318891;26;20108;-59
2024/04/14 05:41:14;;;;;;;4.85;3.17;;;;;;;10.57;100.00;97780.44;5320285;26;20001;-59
2024/04/14 05:43:41;;;;;;;5.28;2.90;;;;;;;10.57;100.00;97782.34;5322618;26;20005;-59
2024/04/14 05:46:08;;;;;;;5.97;3.08;;;;;;;10.70;100.00;97778.50;5335501;26;20069;-59
2024/04/14 05:48:34;;;;;;;5.13;2.70;;;;;;;10.71;100.00;97778.28;5327087;26;20052;-59
2024/04/14 05:51:01;;;;;;;6.05;2.80;;;;;;;10.77;100.00;97785.41;5334308;26;20009;-59
2024/04/14 05:53:28;;;;;;;5.53;2.95;;;;;;;10.88;100.00;97783.72;5334971;26;20008;-59
2024/04/14 05:55:54;;;;;;;4.72;2.83;;;;;;;11.01;100.00;97781.75;5339673;26;20023;-59
2024/04/14 05:58:21;;;;;;;4.65;2.53;;;;;;;11.06;100.00;97781.88;5334489;26;20004;-59
2024/04/14 06:00:48;;;;;;;6.00;2.60;;;;;;;11.09;100.00;97775.94;5323777;26;20013;-59
2024/04/14 06:03:15;;;;;;;4.85;2.85;;;;;;;11.18;100.00;97781.78;5335353;26;20015;-59
2024/04/14 06:05:42;;;;;;;4.45;2.60;;;;;;;11.26;100.00;97785.97;5330452;26;20020;-59
2024/04/14 06:08:09;;;;;;;7.70;3.35;;;;;;;11.37;100.00;97790.50;5329941;26;20000;-59
2024/04/14 06:10:36;;;;;;;8.43;4.20;;;;;;;11.50;100.00;97796.66;5330738;26;20756;-59
2024/04/14 06:13:02;;;;;;;6.25;2.78;;;;;;;11.58;100.00;97799.75;5342857;26;20009;-59
2024/04/14 06:15:29;;;;;;;4.57;2.90;;;;;;;11.68;100.00;97798.25;5325642;26;20029;-59
2024/04/14 06:17:56;;;;;;;4.50;2.47;;;;;;;11.80;100.00;97790.84;5326327;26;19997;-59
2024/04/14 06:20:22;;;;;;;6.05;2.75;;;;;;;11.94;100.00;97802.16;5336869;26;20020;-59
2024/04/14 06:22:49;;;;;;;5.82;2.67;;;;;;;12.08;100.00;97802.66;5333634;26;19997;-59
2024/04/14 06:25:16;;;;;;;9.17;4.30;;;;;;;12.23;100.00;97798.50;5345648;26;20019;-59
2024/04/14 06:27:42;;;;;;;13.90;6.15;;;;;;;12.39;100.00;97809.56;5334852;26;20013;-59
2024/04/14 06:30:11;;;;;;;24.98;11.60;;;;;;;12.56;100.00;97799.44;5337161;26;20075;-59
2024/04/14 06:32:38;;;;;;;23.38;10.35;;;;;;;12.74;100.00;97797.44;5328835;26;20021;-59
2024/04/14 06:35:05;;;;;;;14.25;6.68;;;;;;;12.99;100.00;97809.66;5333893;26;20021;-59
2024/04/14 06:37:32;;;;;;;12.90;6.00;;;;;;;13.24;100.00;97800.09;5332762;26;20009;-59
2024/04/14 06:39:59;;;;;;;10.05;5.47;;;;;;;13.45;100.00;97805.72;5333762;26;20016;-59
2024/04/14 06:42:25;;;;;;;9.70;5.65;;;;;;;13.59;100.00;97798.78;5327561;26;20079;-59
2024/04/14 06:44:52;;;;;;;13.05;7.40;;;;;;;13.82;100.00;97809.53;5334920;26;20000;-59
2024/04/14 06:47:19;;;;;;;13.55;7.78;;;;;;;13.94;100.00;97801.16;5336269;26;20015;-59
2024/04/14 06:49:46;;;;;;;12.02;5.88;;;;;;;14.09;100.00;97803.97;5338933;26;20014;-59
2024/04/14 06:52:12;;;;;;;12.60;6.30;;;;;;;14.25;100.00;97798.59;5317866;26;20006;-59
2024/04/14 06:54:39;;;;;;;8.95;5.72;;;;;;;14.41;100.00;97799.50;5338708;26;20016;-59
2024/04/14 06:57:06;;;;;;;8.48;4.32;;;;;;;14.62;100.00;97803.09;5329344;26;20734;-59
2024/04/14 06:59:34;;;;;;;6.25;3.45;;;;;;;14.77;100.00;97801.53;5326780;26;20014;-59
2024/04/14 07:02:00;;;;;;;5.60;3.45;;;;;;;14.93;100.00;97800.47;5329795;26;20407;-58
2024/04/14 07:04:27;;;;;;;4.70;2.80;;;;;;;15.11;100.00;97801.03;5340299;26;20031;-59
2024/04/14 07:06:54;;;;;;;7.00;2.80;;;;;;;15.34;100.00;97801.63;5330666;26;20496;-59
2024/04/14 07:09:21;;;;;;;5.55;2.70;;;;;;;15.53;100.00;97796.44;5321180;26;20079;-59
2024/04/14 07:11:47;;;;;;;4.95;2.20;;;;;;;15.68;100.00;97792.88;5335054;26;20017;-59
2024/04/14 07:14:14;;;;;;;3.95;2.20;;;;;;;15.84;100.00;97795.56;5330684;26;20469;-59
2024/04/14 07:16:40;;;;;;;6.60;2.53;;;;;;;16.13;100.00;97805.88;5330331;26;20001;-59
2024/04/14 07:19:08;;;;;;;4.35;2.10;;;;;;;16.34;100.00;97803.94;5336477;26;20190;-59
2024/04/14 07:21:36;;;;;;;5.13;1.80;;;;;;;16.57;100.00;97804.38;5328313;26;20013;-59
2024/04/14 07:24:03;;;;;;;7.20;2.10;;;;;;;16.71;100.00;97806.47;5338023;26;20016;-59
2024/04/14 07:26:29;;;;;;;4.15;1.60;;;;;;;16.87;100.00;97809.94;5325517;26;20001;-59
2024/04/14 07:28:57;;;;;;;4.03;1.88;;;;;;;16.99;100.00;97810.41;5336826;26;19997;-59
2024/04/14 07:31:24;;;;;;;4.40;1.70;;;;;;;17.17;100.00;97802.66;5339573;26;20152;-59
2024/04/14 07:33:58;;;;;;;4.63;1.40;;;;;;;17.31;100.00;97812.97;5333087;26;20017;-59
2024/04/14 07:36:25;;;;;;;3.35;1.88;;;;;;;17.49;100.00;97819.66;5335539;26;22588;-59
2024/04/14 07:38:52;;;;;;;3.53;1.85;;;;;;;17.77;100.00;97806.28;5339058;26;20007;-59
2024/04/14 07:41:19;;;;;;;3.88;1.52;;;;;;;17.91;100.00;97806.44;5325267;26;20752;-59
2024/04/14 07:43:46;;;;;;;3.70;1.35;;;;;;;18.03;100.00;97806.03;5320532;26;20013;-59
2024/04/14 07:46:14;;;;;;;3.42;1.50;;;;;;;18.13;100.00;97811.41;5325418;26;20085;-59
2024/04/14 07:48:40;;;;;;;4.63;1.83;;;;;;;18.21;100.00;97809.97;5334602;26;20009;-59
2024/04/14 07:51:07;;;;;;;4.32;1.55;;;;;;;18.32;100.00;97808.72;5328597;26;20016;-59
2024/04/14 07:53:34;;;;;;;4.05;1.80;;;;;;;18.49;100.00;97815.66;5316015;26;20082;-59
2024/04/14 07:56:00;;;;;;;3.80;1.52;;;;;;;18.58;100.00;97810.34;5327196;26;20599;-59
2024/04/14 07:58:27;;;;;;;3.88;1.92;;;;;;;18.62;100.00;97807.84;5322559;26;20934;-59
2024/04/14 08:00:54;;;;;;;2.88;1.42;;;;;;;18.69;100.00;97819.25;5326132;26;20005;-59
2024/04/14 08:03:21;;;;;;;4.70;1.35;;;;;;;18.80;100.00;97812.50;5335169;26;20039;-58
2024/04/14 08:05:48;;;;;;;2.97;1.52;;;;;;;18.90;100.00;97819.00;5333137;26;20005;-58
2024/04/14 08:08:14;;;;;;;3.28;1.40;;;;;;;18.91;100.00;97815.13;5321078;26;20071;-57
2024/04/14 08:10:41;;;;;;;5.13;1.48;;;;;;;19.05;100.00;97806.97;5317071;26;20009;-57
2024/04/14 08:13:07;;;;;;;3.63;1.42;;;;;;;19.16;100.00;97813.97;5320140;26;20355;-59
2024/04/14 08:15:34;;;;;;;4.20;1.70;;;;;;;19.12;100.00;97815.66;5338034;26;20000;-56
2024/04/14 08:18:02;;;;;;;4.75;1.67;;;;;;;19.19;100.00;97810.63;5330054;26;20460;-57
2024/04/14 08:20:28;;;;;;;5.78;2.13;;;;;;;19.05;100.00;97823.44;5330017;26;20385;-59
2024/04/14 08:22:55;;;;;;;3.92;1.60;;;;;;;19.19;100.00;97818.03;5317334;26;20006;-57
2024/04/14 08:25:21;;;;;;;4.47;1.98;;;;;;;19.20;100.00;97822.44;5324543;26;20021;-57
2024/04/14 08:27:48;;;;;;;3.20;1.70;;;;;;;19.15;100.00;97819.75;5326610;26;19997;-57
2024/04/14 08:30:15;;;;;;;3.20;1.67;;;;;;;19.33;100.00;97816.19;5325036;26;20002;-57
2024/04/14 08:32:42;;;;;;;2.95;1.63;;;;;;;19.52;100.00;97814.50;5338295;26;20008;-58
2024/04/14 08:35:08;;;;;;;4.75;1.70;;;;;;;19.71;100.00;97822.69;5339773;26;20005;-57
2024/04/14 08:37:35;;;;;;;4.55;1.90;;;;;;;19.73;100.00;97817.72;5335787;26;20000;-57
2024/04/14 08:40:02;;;;;;;3.10;1.40;;;;;;;19.65;100.00;97823.91;5331283;26;20009;-57
2024/04/14 08:42:29;;;;;;;8.27;1.92;;;;;;;19.63;100.00;97822.28;5332207;26;20710;-57
2024/04/14 08:44:59;;;;;;;3.78;1.58;;;;;;;19.78;98.68;97827.81;5320267;26;20065;-59
2024/04/14 08:47:27;;;;;;;3.78;1.63;;;;;;;19.81;98.63;97819.78;5336688;26;20017;-60
2024/04/14 08:49:55;;;;;;;4.20;1.60;;;;;;;19.93;98.37;97819.28;5339625;26;20001;-59
2024/04/14 08:52:22;;;;;;;3.45;1.90;;;;;;;19.85;98.67;97823.56;5342489;26;20044;-59
2024/04/14 08:54:49;;;;;;;3.58;1.60;;;;;;;20.06;97.78;97822.38;5335801;26;20015;-59
2024/04/14 08:57:16;;;;;;;5.10;1.58;;;;;;;19.95;98.29;97818.97;5321519;26;20017;-59
2024/04/14 08:59:48;;;;;;;3.13;1.52;;;;;;;20.13;99.15;97826.34;5341546;26;20783;-59
2024/04/14 09:02:15;;;;;;;4.10;1.70;;;;;;;20.26;98.10;97816.50;5340569;26;20021;-59
2024/04/14 09:04:42;;;;;;;3.70;1.70;;;;;;;20.27;95.38;97823.63;5333633;26;20030;-59
2024/04/14 09:07:09;;;;;;;3.67;1.70;;;;;;;20.39;95.65;97822.31;5330302;26;20009;-59
2024/04/14 09:09:36;;;;;;;3.42;1.40;;;;;;;20.52;94.53;97817.91;5331709;26;20073;-58
2024/04/14 09:12:03;;;;;;;3.35;1.67;;;;;;;20.48;95.72;97820.47;5330869;26;20009;-59
2024/04/14 09:14:29;;;;;;;5.75;1.83;;;;;;;20.59;94.64;97818.31;5333300;26;20011;-59
2024/04/14 09:16:56;;;;;;;4.13;1.88;;;;;;;20.51;93.29;97817.13;5337265;26;20011;-58
2024/04/14 09:19:23;;;;;;;5.35;1.60;;;;;;;20.61;92.97;97820.75;5334149;26;20292;-59
2024/04/14 09:21:50;;;;;;;6.22;1.80;;;;;;;20.52;94.21;97821.50;5326426;26;20361;-59
2024/04/14 09:24:16;;;;;;;2.78;1.50;;;;;;;20.73;93.14;97815.56;5335447;26;20773;-58
2024/04/14 09:26:44;;;;;;;5.22;1.65;;;;;;;20.57;94.33;97822.50;5347100;26;20830;-59
2024/04/14 09:29:10;;;;;;;2.70;1.42;;;;;;;20.64;93.72;97825.66;5335772;26;19997;-58
2024/04/14 09:31:37;;;;;;;4.07;1.75;;;;;;;20.73;94.79;97818.31;5341411;26;20799;-58
2024/04/14 09:34:04;;;;;;;5.68;2.88;;;;;;;20.97;90.39;97816.47;5343566;26;20318;-58
2024/04/14 09:36:31;;;;;;;5.57;2.45;;;;;;;21.03;90.80;97816.03;5336871;26;20000;-59
2024/04/14 09:38:59;;;;;;;3.45;1.60;;;;;;;21.14;90.72;97818.53;5353046;26;20001;-59
2024/04/14 09:41:27;;;;;;;6.53;1.80;;;;;;;21.07;88.54;97821.72;5333856;26;20353;-59
2024/04/14 09:43:55;;;;;;;3.90;2.08;;;;;;;20.83;91.31;97820.03;5335729;26;20081;-58
2024/04/14 09:46:23;;;;;;;2.72;1.70;;;;;;;21.03;92.23;97816.03;5344184;26;20388;-59
2024/04/14 09:48:49;;;;;;;6.22;1.83;;;;;;;21.07;91.72;97813.47;5342372;26;20016;-59
2024/04/14 09:51:18;;;;;;;4.30;1.52;;;;;;;21.15;91.17;97814.66;5333214;26;20562;-60
2024/04/14 09:53:47;;;;;;;3.92;1.52;;;;;;;21.22;89.28;97808.72;5343320;26;20007;-59
2024/04/14 09:56:14;;;;;;;7.20;2.90;;;;;;;21.42;88.96;97810.97;5333506;26;20005;-59
2024/04/14 09:58:41;;;;;;;5.20;1.77;;;;;;;21.36;88.21;97811.41;5330444;26;20058;-59
2024/04/14 10:01:12;;;;;;;3.22;1.42;;;;;;;21.22;88.36;97804.03;5336571;26;20001;-59
2024/04/14 10:03:40;;;;;;;4.40;1.77;;;;;;;21.47;89.53;97809.22;5339980;26;20009;-57
2024/04/14 10:06:08;;;;;;;3.83;1.83;;;;;;;21.63;88.47;97801.41;5340272;26;20052;-59
2024/04/14 10:08:35;;;;;;;5.35;1.67;;;;;;;21.82;88.99;97801.22;5330182;26;20000;-56
2024/04/14 10:11:02;;;;;;;4.78;2.00;;;;;;;21.88;87.70;97790.84;5324937;26;20088;-59
2024/04/14 10:13:29;;;;;;;5.40;1.63;;;;;;;21.89;85.86;97790.53;5318183;26;20001;-60
2024/04/14 10:15:59;;;;;;;4.63;1.80;;;;;;;21.78;83.03;97801.03;5327844;26;20009;-59
2024/04/14 10:18:33;;;;;;;3.00;1.55;;;;;;;21.87;80.68;97792.00;5315965;26;20009;-59
2024/04/14 10:21:01;;;;;;;7.10;1.90;;;;;;;21.73;82.09;97787.38;5323865;26;20001;-60
2024/04/14 10:23:28;;;;;;;4.47;1.95;;;;;;;21.87;82.17;97787.28;5312557;26;20009;-59
2024/04/14 10:25:55;;;;;;;5.30;1.70;;;;;;;21.70;83.04;97788.78;5329531;26;20001;-60
2024/04/14 10:28:22;;;;;;;4.95;1.65;;;;;;;21.65;83.40;97791.69;5332121;26;20071;-60
2024/04/14 10:31:00;;;;;;;2.72;1.35;;;;;;;21.80;82.46;97786.94;5322851;26;20005;-60
2024/04/14 10:33:27;;;;;;;5.22;1.80;;;;;;;21.74;81.76;97777.19;5335434;26;20020;-60
2024/04/14 10:36:04;;;;;;;4.22;2.05;;;;;;;21.91;81.70;97773.69;5337317;26;20040;-60
2024/04/14 10:38:33;;;;;;;4.25;1.48;;;;;;;22.08;81.22;97770.19;5346878;26;20016;-60
2024/04/14 10:41:00;;;;;;;4.60;1.60;;;;;;;22.08;80.30;97764.69;5344382;26;20001;-60
2024/04/14 10:43:27;;;;;;;3.33;1.60;;;;;;;22.29;80.04;97775.16;5341324;26;20040;-60
2024/04/14 10:46:00;;;;;;;3.63;1.58;;;;;;;22.00;79.50;97766.25;5331927;26;20021;-58
2024/04/14 10:48:27;;;;;;;2.38;1.38;;;;;;;22.14;80.38;97763.41;5341548;26;20005;-60
2024/04/14 10:50:53;;;;;;;2.90;1.30;;;;;;;22.25;77.85;97760.38;5331385;26;20444;-60
2024/04/14 10:53:20;;;;;;;3.92;1.70;;;;;;;22.05;77.49;97752.34;5337744;26;20009;-59
2024/04/14 10:55:46;;;;;;;4.07;1.77;;;;;;;21.83;79.45;97764.25;5329307;26;20001;-59
2024/04/14 10:58:13;;;;;;;3.60;1.67;;;;;;;21.99;77.57;97755.53;5337487;26;20013;-60
2024/04/14 11:00:40;;;;;;;3.88;1.75;;;;;;;22.11;78.05;97747.47;5338564;26;20016;-60
2024/04/14 11:03:08;;;;;;;4.05;1.52;;;;;;;22.25;77.72;97741.06;5340452;26;20004;-59
2024/04/14 11:05:35;;;;;;;2.95;1.58;;;;;;;22.60;77.18;97738.41;5327642;26;20001;-57
2024/04/14 11:08:01;;;;;;;3.75;1.65;;;;;;;22.85;75.47;97745.06;5328195;26;20033;-59
2024/04/14 11:10:28;;;;;;;4.10;1.85;;;;;;;22.94;75.48;97733.22;5339901;26;22199;-59
2024/04/14 11:12:55;;;;;;;3.42;1.60;;;;;;;23.16;73.26;97734.16;5329061;26;20013;-57
2024/04/14 11:15:22;;;;;;;3.70;1.55;;;;;;;23.04;73.69;97730.13;5320157;26;20380;-60
2024/04/14 11:17:48;;;;;;;5.30;1.58;;;;;;;22.84;75.17;97729.63;5327392;26;20786;-57
2024/04/14 11:20:15;;;;;;;4.38;1.70;;;;;;;22.62;75.53;97738.06;5325279;26;20993;-59
2024/04/14 11:22:43;;;;;;;3.70;1.70;;;;;;;22.93;74.79;97724.13;5322453;26;20024;-58
2024/04/14 11:25:09;;;;;;;3.40;1.73;;;;;;;22.77;71.03;97728.50;5319381;26;20533;-58
2024/04/14 11:27:36;;;;;;;5.07;3.03;;;;;;;23.06;68.14;97727.84;5331711;26;20017;-59
2024/04/14 11:30:04;;;;;;;4.82;1.70;;;;;;;23.01;70.93;97719.72;5329829;26;20679;-59